sensor_id;sensor_type;location;lat;lon;timestamp;P1;durP1;ratioP1;P2;durP2;ratioP2
24357;SDS011;13668;52.154;5.580;2023-02-13T00:02:09;29.83;;;17.27;;
24357;SDS011;13668;52.154;5.580;2023-02-13T00:04:35;27.05;;;15.75;;
24357;SDS011;13668;52.154;5.580;2023-02-13T00:07:01;28.30;;;17.00;;
24357;SDS011;13668;52.154;5.580;2023-02-13T00:09:27;26.90;;;16.40;;
24357;SDS011;13668;52.154;5.580;2023-02-13T00:11:53;26.05;;;16.15;;
24357;SDS011;13668;52.154;5.580;2023-02-13T00:14:19;29.08;;;15.95;;
24357;SDS011;13668;52.154;5.580;2023-02-13T00:16:45;26.23;;;15.18;;
24357;SDS011;13668;52.154;5.580;2023-02-13T00:19:11;28.65;;;16.38;;
24357;SDS011;13668;52.154;5.580;2023-02-13T00:21:37;29.27;;;16.42;;
24357;SDS011;13668;52.154;5.580;2023-02-13T00:24:03;25.98;;;15.32;;
24357;SDS011;13668;52.154;5.580;2023-02-13T00:26:29;27.30;;;15.90;;
24357;SDS011;13668;52.154;5.580;2023-02-13T00:28:55;30.92;;;17.30;;
24357;SDS011;13668;52.154;5.580;2023-02-13T00:31:21;27.67;;;16.38;;
24357;SDS011;13668;52.154;5.580;2023-02-13T00:33:47;28.17;;;16.75;;
24357;SDS011;13668;52.154;5.580;2023-02-13T00:36:17;30.92;;;16.40;;
24357;SDS011;13668;52.154;5.580;2023-02-13T00:38:46;26.60;;;16.45;;
24357;SDS011;13668;52.154;5.580;2023-02-13T00:41:12;26.10;;;15.63;;
24357;SDS011;13668;52.154;5.580;2023-02-13T00:43:38;26.33;;;15.68;;
24357;SDS011;13668;52.154;5.580;2023-02-13T00:46:04;29.27;;;15.85;;
24357;SDS011;13668;52.154;5.580;2023-02-13T00:48:31;27.38;;;16.02;;
24357;SDS011;13668;52.154;5.580;2023-02-13T00:51:00;25.38;;;16.23;;
24357;SDS011;13668;52.154;5.580;2023-02-13T00:53:26;28.05;;;16.30;;
24357;SDS011;13668;52.154;5.580;2023-02-13T00:55:52;27.73;;;15.52;;
24357;SDS011;13668;52.154;5.580;2023-02-13T00:58:18;26.10;;;15.75;;
24357;SDS011;13668;52.154;5.580;2023-02-13T01:00:44;28.92;;;16.55;;
24357;SDS011;13668;52.154;5.580;2023-02-13T01:03:11;28.05;;;16.80;;
24357;SDS011;13668;52.154;5.580;2023-02-13T01:05:37;29.55;;;17.00;;
24357;SDS011;13668;52.154;5.580;2023-02-13T01:08:03;29.27;;;17.48;;
24357;SDS011;13668;52.154;5.580;2023-02-13T01:10:29;28.70;;;16.67;;
24357;SDS011;13668;52.154;5.580;2023-02-13T01:12:55;31.27;;;17.08;;
24357;SDS011;13668;52.154;5.580;2023-02-13T01:15:21;26.52;;;16.33;;
24357;SDS011;13668;52.154;5.580;2023-02-13T01:17:47;25.75;;;16.48;;
24357;SDS011;13668;52.154;5.580;2023-02-13T01:20:13;31.50;;;17.90;;
24357;SDS011;13668;52.154;5.580;2023-02-13T01:22:39;32.20;;;17.92;;
24357;SDS011;13668;52.154;5.580;2023-02-13T01:25:08;31.55;;;17.48;;
24357;SDS011;13668;52.154;5.580;2023-02-13T01:27:34;27.65;;;17.25;;
24357;SDS011;13668;52.154;5.580;2023-02-13T01:30:02;30.02;;;17.77;;
24357;SDS011;13668;52.154;5.580;2023-02-13T01:32:28;27.33;;;16.40;;
24357;SDS011;13668;52.154;5.580;2023-02-13T01:34:54;31.33;;;16.73;;
24357;SDS011;13668;52.154;5.580;2023-02-13T01:37:20;28.50;;;17.25;;
24357;SDS011;13668;52.154;5.580;2023-02-13T01:39:46;31.42;;;17.10;;
24357;SDS011;13668;52.154;5.580;2023-02-13T01:42:16;26.30;;;16.75;;
24357;SDS011;13668;52.154;5.580;2023-02-13T01:45:31;29.42;;;17.20;;
24357;SDS011;13668;52.154;5.580;2023-02-13T01:47:42;28.15;;;16.60;;
24357;SDS011;13668;52.154;5.580;2023-02-13T01:52:37;28.35;;;15.93;;
24357;SDS011;13668;52.154;5.580;2023-02-13T01:55:05;29.90;;;17.17;;
24357;SDS011;13668;52.154;5.580;2023-02-13T01:57:31;32.90;;;18.92;;
24357;SDS011;13668;52.154;5.580;2023-02-13T02:00:02;27.58;;;16.50;;
24357;SDS011;13668;52.154;5.580;2023-02-13T02:02:30;30.05;;;17.08;;
24357;SDS011;13668;52.154;5.580;2023-02-13T02:04:59;32.63;;;17.65;;
24357;SDS011;13668;52.154;5.580;2023-02-13T02:07:26;33.47;;;18.42;;
24357;SDS011;13668;52.154;5.580;2023-02-13T02:09:55;26.00;;;16.73;;
24357;SDS011;13668;52.154;5.580;2023-02-13T02:12:26;27.25;;;16.80;;
24357;SDS011;13668;52.154;5.580;2023-02-13T02:14:54;27.98;;;16.92;;
24357;SDS011;13668;52.154;5.580;2023-02-13T02:17:21;30.02;;;18.45;;
24357;SDS011;13668;52.154;5.580;2023-02-13T02:22:58;29.88;;;17.27;;
24357;SDS011;13668;52.154;5.580;2023-02-13T02:27:53;30.60;;;17.08;;
24357;SDS011;13668;52.154;5.580;2023-02-13T02:37:50;30.25;;;17.23;;
24357;SDS011;13668;52.154;5.580;2023-02-13T02:40:23;28.15;;;17.98;;
24357;SDS011;13668;52.154;5.580;2023-02-13T02:42:55;33.88;;;18.65;;
24357;SDS011;13668;52.154;5.580;2023-02-13T02:45:27;30.75;;;18.40;;
24357;SDS011;13668;52.154;5.580;2023-02-13T02:47:59;29.58;;;17.52;;
24357;SDS011;13668;52.154;5.580;2023-02-13T02:51:03;32.22;;;17.65;;
24357;SDS011;13668;52.154;5.580;2023-02-13T02:56:00;31.58;;;17.73;;
24357;SDS011;13668;52.154;5.580;2023-02-13T03:01:16;30.65;;;17.63;;
24357;SDS011;13668;52.154;5.580;2023-02-13T03:04:01;27.20;;;17.00;;
24357;SDS011;13668;52.154;5.580;2023-02-13T03:06:56;31.13;;;17.23;;
24357;SDS011;13668;52.154;5.580;2023-02-13T03:09:26;32.67;;;17.65;;
24357;SDS011;13668;52.154;5.580;2023-02-13T03:12:13;29.42;;;17.85;;
24357;SDS011;13668;52.154;5.580;2023-02-13T03:15:00;32.35;;;17.65;;
24357;SDS011;13668;52.154;5.580;2023-02-13T03:17:26;31.17;;;17.95;;
24357;SDS011;13668;52.154;5.580;2023-02-13T03:20:13;29.55;;;17.35;;
24357;SDS011;13668;52.154;5.580;2023-02-13T03:23:07;30.33;;;16.67;;
24357;SDS011;13668;52.154;5.580;2023-02-13T03:28:18;28.92;;;17.05;;
24357;SDS011;13668;52.154;5.580;2023-02-13T03:34:04;28.92;;;17.73;;
24357;SDS011;13668;52.154;5.580;2023-02-13T03:39:22;28.05;;;17.13;;
24357;SDS011;13668;52.154;5.580;2023-02-13T03:41:56;30.42;;;17.17;;
24357;SDS011;13668;52.154;5.580;2023-02-13T03:44:43;32.22;;;18.27;;
24357;SDS011;13668;52.154;5.580;2023-02-13T03:47:11;33.55;;;16.77;;
24357;SDS011;13668;52.154;5.580;2023-02-13T03:49:46;32.08;;;16.95;;
24357;SDS011;13668;52.154;5.580;2023-02-13T03:54:59;29.50;;;17.92;;
24357;SDS011;13668;52.154;5.580;2023-02-13T03:57:44;30.75;;;17.15;;
24357;SDS011;13668;52.154;5.580;2023-02-13T04:00:32;33.50;;;16.90;;
24357;SDS011;13668;52.154;5.580;2023-02-13T04:03:00;33.55;;;18.30;;
24357;SDS011;13668;52.154;5.580;2023-02-13T04:05:29;30.90;;;18.10;;
24357;SDS011;13668;52.154;5.580;2023-02-13T04:07:57;30.00;;;17.25;;
24357;SDS011;13668;52.154;5.580;2023-02-13T04:10:23;31.75;;;18.00;;
24357;SDS011;13668;52.154;5.580;2023-02-13T04:13:02;31.27;;;17.50;;
24357;SDS011;13668;52.154;5.580;2023-02-13T04:15:38;30.02;;;17.02;;
24357;SDS011;13668;52.154;5.580;2023-02-13T04:18:10;32.95;;;17.45;;
24357;SDS011;13668;52.154;5.580;2023-02-13T04:20:38;30.48;;;18.00;;
24357;SDS011;13668;52.154;5.580;2023-02-13T04:23:08;30.40;;;16.67;;
24357;SDS011;13668;52.154;5.580;2023-02-13T04:25:35;31.77;;;17.52;;
24357;SDS011;13668;52.154;5.580;2023-02-13T04:28:02;34.22;;;18.90;;
24357;SDS011;13668;52.154;5.580;2023-02-13T04:30:28;29.30;;;17.25;;
24357;SDS011;13668;52.154;5.580;2023-02-13T04:32:54;33.58;;;17.52;;
24357;SDS011;13668;52.154;5.580;2023-02-13T04:35:20;31.35;;;16.55;;
24357;SDS011;13668;52.154;5.580;2023-02-13T04:37:46;28.55;;;16.60;;
24357;SDS011;13668;52.154;5.580;2023-02-13T04:40:12;28.58;;;16.58;;
24357;SDS011;13668;52.154;5.580;2023-02-13T04:42:38;35.35;;;18.38;;
24357;SDS011;13668;52.154;5.580;2023-02-13T04:45:04;33.50;;;18.55;;
24357;SDS011;13668;52.154;5.580;2023-02-13T04:47:30;29.92;;;17.00;;
24357;SDS011;13668;52.154;5.580;2023-02-13T04:49:56;28.85;;;17.30;;
24357;SDS011;13668;52.154;5.580;2023-02-13T04:52:22;32.70;;;17.27;;
24357;SDS011;13668;52.154;5.580;2023-02-13T04:54:48;31.50;;;16.77;;
24357;SDS011;13668;52.154;5.580;2023-02-13T04:57:14;28.95;;;16.77;;
24357;SDS011;13668;52.154;5.580;2023-02-13T04:59:40;34.42;;;18.70;;
24357;SDS011;13668;52.154;5.580;2023-02-13T05:02:06;33.60;;;17.80;;
24357;SDS011;13668;52.154;5.580;2023-02-13T05:04:32;35.15;;;18.45;;
24357;SDS011;13668;52.154;5.580;2023-02-13T05:06:58;32.00;;;17.25;;
24357;SDS011;13668;52.154;5.580;2023-02-13T05:09:24;33.83;;;18.70;;
24357;SDS011;13668;52.154;5.580;2023-02-13T05:11:51;29.70;;;17.77;;
24357;SDS011;13668;52.154;5.580;2023-02-13T05:14:17;36.75;;;17.20;;
24357;SDS011;13668;52.154;5.580;2023-02-13T05:16:43;31.63;;;16.83;;
24357;SDS011;13668;52.154;5.580;2023-02-13T05:19:09;33.65;;;17.88;;
24357;SDS011;13668;52.154;5.580;2023-02-13T05:21:35;29.77;;;17.38;;
24357;SDS011;13668;52.154;5.580;2023-02-13T05:24:20;29.33;;;16.92;;
24357;SDS011;13668;52.154;5.580;2023-02-13T05:26:46;31.23;;;17.27;;
24357;SDS011;13668;52.154;5.580;2023-02-13T05:29:12;36.72;;;19.08;;
24357;SDS011;13668;52.154;5.580;2023-02-13T05:31:51;30.10;;;16.85;;
24357;SDS011;13668;52.154;5.580;2023-02-13T05:34:17;32.20;;;17.77;;
24357;SDS011;13668;52.154;5.580;2023-02-13T05:36:43;34.33;;;18.55;;
24357;SDS011;13668;52.154;5.580;2023-02-13T05:39:09;34.40;;;18.38;;
24357;SDS011;13668;52.154;5.580;2023-02-13T05:41:35;39.20;;;19.13;;
24357;SDS011;13668;52.154;5.580;2023-02-13T05:44:02;31.67;;;18.67;;
24357;SDS011;13668;52.154;5.580;2023-02-13T05:46:28;32.15;;;19.15;;
24357;SDS011;13668;52.154;5.580;2023-02-13T05:48:53;34.10;;;19.35;;
24357;SDS011;13668;52.154;5.580;2023-02-13T05:51:19;33.88;;;19.33;;
24357;SDS011;13668;52.154;5.580;2023-02-13T05:53:45;36.00;;;20.10;;
24357;SDS011;13668;52.154;5.580;2023-02-13T05:56:11;36.50;;;20.08;;
24357;SDS011;13668;52.154;5.580;2023-02-13T05:58:37;33.33;;;19.52;;
24357;SDS011;13668;52.154;5.580;2023-02-13T06:01:03;37.15;;;20.10;;
24357;SDS011;13668;52.154;5.580;2023-02-13T06:03:30;38.92;;;21.55;;
24357;SDS011;13668;52.154;5.580;2023-02-13T06:05:56;35.00;;;20.05;;
24357;SDS011;13668;52.154;5.580;2023-02-13T06:08:23;36.45;;;20.35;;
24357;SDS011;13668;52.154;5.580;2023-02-13T06:10:49;34.58;;;20.02;;
24357;SDS011;13668;52.154;5.580;2023-02-13T06:13:15;38.83;;;21.48;;
24357;SDS011;13668;52.154;5.580;2023-02-13T06:15:41;40.28;;;22.05;;
24357;SDS011;13668;52.154;5.580;2023-02-13T06:18:07;38.08;;;20.15;;
24357;SDS011;13668;52.154;5.580;2023-02-13T06:20:33;34.95;;;20.75;;
24357;SDS011;13668;52.154;5.580;2023-02-13T06:23:00;34.75;;;19.95;;
24357;SDS011;13668;52.154;5.580;2023-02-13T06:25:26;33.22;;;19.73;;
24357;SDS011;13668;52.154;5.580;2023-02-13T06:27:52;38.30;;;21.73;;
24357;SDS011;13668;52.154;5.580;2023-02-13T06:30:18;36.88;;;20.73;;
24357;SDS011;13668;52.154;5.580;2023-02-13T06:32:45;36.28;;;20.67;;
24357;SDS011;13668;52.154;5.580;2023-02-13T06:35:11;38.08;;;20.70;;
24357;SDS011;13668;52.154;5.580;2023-02-13T06:37:45;37.64;;;21.24;;
24357;SDS011;13668;52.154;5.580;2023-02-13T06:40:12;36.22;;;20.35;;
24357;SDS011;13668;52.154;5.580;2023-02-13T06:42:39;37.25;;;21.98;;
24357;SDS011;13668;52.154;5.580;2023-02-13T06:45:06;37.35;;;20.58;;
24357;SDS011;13668;52.154;5.580;2023-02-13T06:47:32;36.42;;;19.73;;
24357;SDS011;13668;52.154;5.580;2023-02-13T06:49:58;38.40;;;21.58;;
24357;SDS011;13668;52.154;5.580;2023-02-13T06:52:24;36.22;;;20.48;;
24357;SDS011;13668;52.154;5.580;2023-02-13T06:54:50;36.15;;;21.20;;
24357;SDS011;13668;52.154;5.580;2023-02-13T06:57:16;40.63;;;22.50;;
24357;SDS011;13668;52.154;5.580;2023-02-13T06:59:42;34.53;;;20.13;;
24357;SDS011;13668;52.154;5.580;2023-02-13T07:02:09;41.47;;;21.83;;
24357;SDS011;13668;52.154;5.580;2023-02-13T07:04:35;42.17;;;22.58;;
24357;SDS011;13668;52.154;5.580;2023-02-13T07:07:01;35.63;;;21.08;;
24357;SDS011;13668;52.154;5.580;2023-02-13T07:09:27;42.72;;;22.65;;
24357;SDS011;13668;52.154;5.580;2023-02-13T07:11:53;34.60;;;22.05;;
24357;SDS011;13668;52.154;5.580;2023-02-13T07:14:19;38.35;;;20.55;;
24357;SDS011;13668;52.154;5.580;2023-02-13T07:16:45;41.67;;;21.58;;
24357;SDS011;13668;52.154;5.580;2023-02-13T07:19:11;37.25;;;21.55;;
24357;SDS011;13668;52.154;5.580;2023-02-13T07:21:37;39.47;;;22.65;;
24357;SDS011;13668;52.154;5.580;2023-02-13T07:24:03;40.03;;;23.08;;
24357;SDS011;13668;52.154;5.580;2023-02-13T07:26:29;38.47;;;22.85;;
24357;SDS011;13668;52.154;5.580;2023-02-13T07:28:55;44.50;;;23.02;;
24357;SDS011;13668;52.154;5.580;2023-02-13T07:31:21;38.25;;;22.50;;
24357;SDS011;13668;52.154;5.580;2023-02-13T07:33:48;39.05;;;23.02;;
24357;SDS011;13668;52.154;5.580;2023-02-13T07:36:14;39.47;;;22.75;;
24357;SDS011;13668;52.154;5.580;2023-02-13T07:38:40;41.13;;;23.08;;
24357;SDS011;13668;52.154;5.580;2023-02-13T07:41:06;35.25;;;21.20;;
24357;SDS011;13668;52.154;5.580;2023-02-13T07:43:32;40.40;;;21.90;;
24357;SDS011;13668;52.154;5.580;2023-02-13T07:45:58;44.20;;;23.35;;
24357;SDS011;13668;52.154;5.580;2023-02-13T07:48:25;37.83;;;23.35;;
24357;SDS011;13668;52.154;5.580;2023-02-13T07:50:58;42.70;;;23.45;;
24357;SDS011;13668;52.154;5.580;2023-02-13T07:53:24;41.92;;;24.35;;
24357;SDS011;13668;52.154;5.580;2023-02-13T07:55:50;43.58;;;24.15;;
24357;SDS011;13668;52.154;5.580;2023-02-13T07:58:16;40.53;;;24.05;;
24357;SDS011;13668;52.154;5.580;2023-02-13T08:00:42;38.90;;;23.38;;
24357;SDS011;13668;52.154;5.580;2023-02-13T08:03:10;40.15;;;23.85;;
24357;SDS011;13668;52.154;5.580;2023-02-13T08:05:36;42.53;;;24.77;;
24357;SDS011;13668;52.154;5.580;2023-02-13T08:08:02;38.70;;;22.77;;
24357;SDS011;13668;52.154;5.580;2023-02-13T08:10:28;40.63;;;23.17;;
24357;SDS011;13668;52.154;5.580;2023-02-13T08:13:13;40.25;;;23.00;;
24357;SDS011;13668;52.154;5.580;2023-02-13T08:15:40;37.80;;;22.50;;
24357;SDS011;13668;52.154;5.580;2023-02-13T08:18:08;37.80;;;22.35;;
24357;SDS011;13668;52.154;5.580;2023-02-13T08:20:34;37.53;;;22.35;;
24357;SDS011;13668;52.154;5.580;2023-02-13T08:23:08;39.38;;;23.13;;
24357;SDS011;13668;52.154;5.580;2023-02-13T08:25:34;39.75;;;23.73;;
24357;SDS011;13668;52.154;5.580;2023-02-13T08:28:00;43.88;;;26.15;;
24357;SDS011;13668;52.154;5.580;2023-02-13T08:30:26;38.53;;;23.90;;
24357;SDS011;13668;52.154;5.580;2023-02-13T08:32:53;39.28;;;24.75;;
24357;SDS011;13668;52.154;5.580;2023-02-13T08:35:19;40.63;;;23.83;;
24357;SDS011;13668;52.154;5.580;2023-02-13T08:37:45;38.13;;;22.50;;
24357;SDS011;13668;52.154;5.580;2023-02-13T08:40:11;40.33;;;24.08;;
24357;SDS011;13668;52.154;5.580;2023-02-13T08:42:37;38.35;;;23.75;;
24357;SDS011;13668;52.154;5.580;2023-02-13T08:45:03;37.58;;;22.85;;
24357;SDS011;13668;52.154;5.580;2023-02-13T08:47:30;38.67;;;23.30;;
24357;SDS011;13668;52.154;5.580;2023-02-13T08:49:56;36.80;;;23.55;;
24357;SDS011;13668;52.154;5.580;2023-02-13T08:52:22;37.35;;;22.90;;
24357;SDS011;13668;52.154;5.580;2023-02-13T08:54:48;41.60;;;24.10;;
24357;SDS011;13668;52.154;5.580;2023-02-13T08:57:17;38.67;;;23.40;;
24357;SDS011;13668;52.154;5.580;2023-02-13T08:59:43;37.40;;;23.30;;
24357;SDS011;13668;52.154;5.580;2023-02-13T09:02:12;35.40;;;22.20;;
24357;SDS011;13668;52.154;5.580;2023-02-13T09:04:38;37.92;;;22.98;;
24357;SDS011;13668;52.154;5.580;2023-02-13T09:07:04;34.45;;;23.23;;
24357;SDS011;13668;52.154;5.580;2023-02-13T09:09:30;34.96;;;21.39;;
24357;SDS011;13668;52.154;5.580;2023-02-13T09:11:56;34.30;;;21.83;;
24357;SDS011;13668;52.154;5.580;2023-02-13T09:14:25;35.95;;;24.33;;
24357;SDS011;13668;52.154;5.580;2023-02-13T09:16:51;32.85;;;20.83;;
24357;SDS011;13668;52.154;5.580;2023-02-13T09:19:17;33.90;;;22.00;;
24357;SDS011;13668;52.154;5.580;2023-02-13T09:21:43;33.08;;;20.83;;
24357;SDS011;13668;52.154;5.580;2023-02-13T09:24:09;35.92;;;22.23;;
24357;SDS011;13668;52.154;5.580;2023-02-13T09:26:35;30.83;;;20.50;;
24357;SDS011;13668;52.154;5.580;2023-02-13T09:29:01;32.13;;;20.48;;
24357;SDS011;13668;52.154;5.580;2023-02-13T09:31:33;28.95;;;19.40;;
24357;SDS011;13668;52.154;5.580;2023-02-13T09:33:59;34.03;;;19.38;;
24357;SDS011;13668;52.154;5.580;2023-02-13T09:36:25;27.88;;;19.88;;
24357;SDS011;13668;52.154;5.580;2023-02-13T09:38:52;30.20;;;19.58;;
24357;SDS011;13668;52.154;5.580;2023-02-13T09:43:48;32.83;;;20.92;;
24357;SDS011;13668;52.154;5.580;2023-02-13T09:46:17;30.52;;;19.25;;
24357;SDS011;13668;52.154;5.580;2023-02-13T09:48:45;30.55;;;18.20;;
24357;SDS011;13668;52.154;5.580;2023-02-13T09:51:13;27.67;;;18.77;;
24357;SDS011;13668;52.154;5.580;2023-02-13T09:53:40;30.35;;;20.15;;
24357;SDS011;13668;52.154;5.580;2023-02-13T09:56:17;27.75;;;19.15;;
24357;SDS011;13668;52.154;5.580;2023-02-13T09:58:50;28.70;;;19.20;;
24357;SDS011;13668;52.154;5.580;2023-02-13T10:01:30;27.13;;;18.38;;
24357;SDS011;13668;52.154;5.580;2023-02-13T10:06:30;29.58;;;19.10;;
24357;SDS011;13668;52.154;5.580;2023-02-13T10:09:43;28.42;;;18.45;;
24357;SDS011;13668;52.154;5.580;2023-02-13T10:11:47;27.23;;;19.23;;
24357;SDS011;13668;52.154;5.580;2023-02-13T10:14:17;28.77;;;19.33;;
24357;SDS011;13668;52.154;5.580;2023-02-13T10:16:59;30.02;;;19.60;;
24357;SDS011;13668;52.154;5.580;2023-02-13T10:19:31;28.67;;;20.00;;
24357;SDS011;13668;52.154;5.580;2023-02-13T10:22:04;28.75;;;20.17;;
24357;SDS011;13668;52.154;5.580;2023-02-13T10:24:33;26.23;;;18.38;;
24357;SDS011;13668;52.154;5.580;2023-02-13T10:27:01;30.25;;;19.60;;
24357;SDS011;13668;52.154;5.580;2023-02-13T10:29:37;25.33;;;17.75;;
24357;SDS011;13668;52.154;5.580;2023-02-13T10:32:28;25.50;;;18.70;;
24357;SDS011;13668;52.154;5.580;2023-02-13T10:34:56;26.52;;;17.50;;
24357;SDS011;13668;52.154;5.580;2023-02-13T10:37:23;25.88;;;18.02;;
24357;SDS011;13668;52.154;5.580;2023-02-13T10:39:50;27.35;;;18.52;;
24357;SDS011;13668;52.154;5.580;2023-02-13T10:52:21;25.67;;;17.52;;
24357;SDS011;13668;52.154;5.580;2023-02-13T10:54:56;25.02;;;17.38;;
24357;SDS011;13668;52.154;5.580;2023-02-13T10:57:31;24.92;;;18.05;;
24357;SDS011;13668;52.154;5.580;2023-02-13T11:00:03;23.85;;;17.98;;
24357;SDS011;13668;52.154;5.580;2023-02-13T11:02:30;23.27;;;16.95;;
24357;SDS011;13668;52.154;5.580;2023-02-13T11:05:04;23.50;;;17.67;;
24357;SDS011;13668;52.154;5.580;2023-02-13T11:07:32;24.55;;;17.23;;
24357;SDS011;13668;52.154;5.580;2023-02-13T11:10:02;24.67;;;18.23;;
24357;SDS011;13668;52.154;5.580;2023-02-13T11:12:31;27.92;;;18.98;;
24357;SDS011;13668;52.154;5.580;2023-02-13T11:15:04;26.00;;;19.13;;
24357;SDS011;13668;52.154;5.580;2023-02-13T11:17:31;28.95;;;18.27;;
24357;SDS011;13668;52.154;5.580;2023-02-13T11:20:00;25.83;;;18.10;;
24357;SDS011;13668;52.154;5.580;2023-02-13T11:22:31;25.83;;;18.90;;
24357;SDS011;13668;52.154;5.580;2023-02-13T11:25:00;25.92;;;18.73;;
24357;SDS011;13668;52.154;5.580;2023-02-13T11:27:31;31.25;;;18.65;;
24357;SDS011;13668;52.154;5.580;2023-02-13T11:29:58;26.60;;;17.15;;
24357;SDS011;13668;52.154;5.580;2023-02-13T11:32:26;23.80;;;17.60;;
24357;SDS011;13668;52.154;5.580;2023-02-13T11:34:53;22.50;;;17.02;;
24357;SDS011;13668;52.154;5.580;2023-02-13T11:37:21;23.52;;;17.70;;
24357;SDS011;13668;52.154;5.580;2023-02-13T11:39:48;25.10;;;16.95;;
24357;SDS011;13668;52.154;5.580;2023-02-13T11:42:23;25.85;;;18.02;;
24357;SDS011;13668;52.154;5.580;2023-02-13T11:44:51;22.40;;;16.70;;
24357;SDS011;13668;52.154;5.580;2023-02-13T11:47:39;23.58;;;16.90;;
24357;SDS011;13668;52.154;5.580;2023-02-13T11:50:05;20.85;;;16.45;;
24357;SDS011;13668;52.154;5.580;2023-02-13T11:52:32;22.90;;;16.70;;
24357;SDS011;13668;52.154;5.580;2023-02-13T11:55:00;24.70;;;17.25;;
24357;SDS011;13668;52.154;5.580;2023-02-13T11:57:31;24.00;;;17.10;;
24357;SDS011;13668;52.154;5.580;2023-02-13T11:59:58;22.33;;;16.73;;
24357;SDS011;13668;52.154;5.580;2023-02-13T12:04:51;24.70;;;16.98;;
24357;SDS011;13668;52.154;5.580;2023-02-13T12:07:28;25.65;;;17.95;;
24357;SDS011;13668;52.154;5.580;2023-02-13T12:12:31;23.45;;;17.73;;
24357;SDS011;13668;52.154;5.580;2023-02-13T12:15:00;21.60;;;15.95;;
24357;SDS011;13668;52.154;5.580;2023-02-13T12:17:26;22.83;;;17.00;;
24357;SDS011;13668;52.154;5.580;2023-02-13T12:19:53;22.25;;;16.75;;
24357;SDS011;13668;52.154;5.580;2023-02-13T12:32:53;23.83;;;16.65;;
24357;SDS011;13668;52.154;5.580;2023-02-13T12:40:50;21.85;;;15.82;;
24357;SDS011;13668;52.154;5.580;2023-02-13T12:46:04;20.33;;;15.68;;
24357;SDS011;13668;52.154;5.580;2023-02-13T12:48:34;23.17;;;16.58;;
24357;SDS011;13668;52.154;5.580;2023-02-13T13:06:34;20.30;;;16.00;;
24357;SDS011;13668;52.154;5.580;2023-02-13T13:14:07;23.60;;;17.30;;
24357;SDS011;13668;52.154;5.580;2023-02-13T13:19:26;20.85;;;15.02;;
24357;SDS011;13668;52.154;5.580;2023-02-13T13:24:31;22.85;;;16.50;;
24357;SDS011;13668;52.154;5.580;2023-02-13T13:26:58;21.42;;;16.30;;
24357;SDS011;13668;52.154;5.580;2023-02-13T13:29:26;23.10;;;16.77;;
24357;SDS011;13668;52.154;5.580;2023-02-13T13:32:04;22.25;;;17.00;;
24357;SDS011;13668;52.154;5.580;2023-02-13T13:34:31;23.27;;;15.88;;
24357;SDS011;13668;52.154;5.580;2023-02-13T13:37:06;21.00;;;15.57;;
24357;SDS011;13668;52.154;5.580;2023-02-13T13:39:53;24.95;;;17.85;;
24357;SDS011;13668;52.154;5.580;2023-02-13T13:42:38;23.13;;;16.55;;
24357;SDS011;13668;52.154;5.580;2023-02-13T13:50:38;22.60;;;16.30;;
24357;SDS011;13668;52.154;5.580;2023-02-13T13:58:33;23.40;;;16.80;;
24357;SDS011;13668;52.154;5.580;2023-02-13T14:03:44;24.75;;;17.30;;
24357;SDS011;13668;52.154;5.580;2023-02-13T14:06:12;22.75;;;18.02;;
24357;SDS011;13668;52.154;5.580;2023-02-13T14:13:58;21.20;;;15.25;;
24357;SDS011;13668;52.154;5.580;2023-02-13T14:16:37;21.67;;;14.73;;
24357;SDS011;13668;52.154;5.580;2023-02-13T14:19:03;21.08;;;15.65;;
24357;SDS011;13668;52.154;5.580;2023-02-13T14:21:30;21.00;;;15.00;;
24357;SDS011;13668;52.154;5.580;2023-02-13T14:23:57;22.58;;;15.88;;
24357;SDS011;13668;52.154;5.580;2023-02-13T14:31:35;19.65;;;14.70;;
24357;SDS011;13668;52.154;5.580;2023-02-13T14:34:15;21.83;;;15.98;;
24357;SDS011;13668;52.154;5.580;2023-02-13T14:36:44;21.27;;;15.77;;
24357;SDS011;13668;52.154;5.580;2023-02-13T14:39:24;21.05;;;15.45;;
24357;SDS011;13668;52.154;5.580;2023-02-13T14:47:11;20.85;;;14.55;;
24357;SDS011;13668;52.154;5.580;2023-02-13T14:49:39;20.27;;;14.23;;
24357;SDS011;13668;52.154;5.580;2023-02-13T14:52:07;21.05;;;14.45;;
24357;SDS011;13668;52.154;5.580;2023-02-13T14:54:42;19.52;;;13.50;;
24357;SDS011;13668;52.154;5.580;2023-02-13T14:57:14;21.17;;;13.82;;
24357;SDS011;13668;52.154;5.580;2023-02-13T14:59:42;18.38;;;13.88;;
24357;SDS011;13668;52.154;5.580;2023-02-13T15:02:14;17.42;;;13.32;;
24357;SDS011;13668;52.154;5.580;2023-02-13T15:04:42;16.63;;;12.75;;
24357;SDS011;13668;52.154;5.580;2023-02-13T15:07:17;19.38;;;14.35;;
24357;SDS011;13668;52.154;5.580;2023-02-13T15:09:45;18.85;;;13.80;;
24357;SDS011;13668;52.154;5.580;2023-02-13T15:12:32;17.70;;;13.50;;
24357;SDS011;13668;52.154;5.580;2023-02-13T15:14:58;18.77;;;13.45;;
24357;SDS011;13668;52.154;5.580;2023-02-13T15:17:30;17.38;;;12.85;;
24357;SDS011;13668;52.154;5.580;2023-02-13T15:20:24;16.95;;;12.00;;
24357;SDS011;13668;52.154;5.580;2023-02-13T15:22:49;18.80;;;12.68;;
24357;SDS011;13668;52.154;5.580;2023-02-13T15:25:28;17.52;;;12.43;;
24357;SDS011;13668;52.154;5.580;2023-02-13T15:27:56;17.17;;;12.55;;
24357;SDS011;13668;52.154;5.580;2023-02-13T15:30:27;16.83;;;12.65;;
24357;SDS011;13668;52.154;5.580;2023-02-13T15:32:54;16.88;;;12.45;;
24357;SDS011;13668;52.154;5.580;2023-02-13T15:35:22;16.27;;;11.95;;
24357;SDS011;13668;52.154;5.580;2023-02-13T15:37:49;15.27;;;12.07;;
24357;SDS011;13668;52.154;5.580;2023-02-13T15:40:16;18.73;;;13.00;;
24357;SDS011;13668;52.154;5.580;2023-02-13T15:42:47;17.60;;;12.70;;
24357;SDS011;13668;52.154;5.580;2023-02-13T15:45:14;16.35;;;12.90;;
24357;SDS011;13668;52.154;5.580;2023-02-13T15:47:40;19.05;;;12.77;;
24357;SDS011;13668;52.154;5.580;2023-02-13T15:50:23;17.63;;;12.65;;
24357;SDS011;13668;52.154;5.580;2023-02-13T15:52:51;16.90;;;12.32;;
24357;SDS011;13668;52.154;5.580;2023-02-13T15:55:26;16.38;;;12.02;;
24357;SDS011;13668;52.154;5.580;2023-02-13T15:57:53;16.65;;;13.82;;
24357;SDS011;13668;52.154;5.580;2023-02-13T16:00:22;26.30;;;16.95;;
24357;SDS011;13668;52.154;5.580;2023-02-13T16:02:49;23.88;;;18.35;;
24357;SDS011;13668;52.154;5.580;2023-02-13T16:05:15;28.80;;;20.92;;
24357;SDS011;13668;52.154;5.580;2023-02-13T16:07:49;28.00;;;21.27;;
24357;SDS011;13668;52.154;5.580;2023-02-13T16:10:16;28.90;;;22.08;;
24357;SDS011;13668;52.154;5.580;2023-02-13T16:12:46;29.02;;;22.08;;
24357;SDS011;13668;52.154;5.580;2023-02-13T16:15:14;26.98;;;21.02;;
24357;SDS011;13668;52.154;5.580;2023-02-13T16:17:41;30.77;;;22.30;;
24357;SDS011;13668;52.154;5.580;2023-02-13T16:22:38;31.38;;;22.58;;
24357;SDS011;13668;52.154;5.580;2023-02-13T16:27:40;29.58;;;22.45;;
24357;SDS011;13668;52.154;5.580;2023-02-13T16:30:14;33.55;;;23.30;;
24357;SDS011;13668;52.154;5.580;2023-02-13T16:32:47;29.85;;;22.90;;
24357;SDS011;13668;52.154;5.580;2023-02-13T16:37:52;29.88;;;22.35;;
24357;SDS011;13668;52.154;5.580;2023-02-13T16:42:52;30.80;;;21.90;;
24357;SDS011;13668;52.154;5.580;2023-02-13T16:45:21;32.45;;;23.10;;
24357;SDS011;13668;52.154;5.580;2023-02-13T16:47:47;34.38;;;22.98;;
24357;SDS011;13668;52.154;5.580;2023-02-13T16:50:26;31.95;;;23.17;;